Time;durP1;ratioP1;P1;durP2;ratioP2;P2;SDS_P1;SDS_P2;PMS_P1;PMS_P2;Temp;Humidity;BMP_temperature;BMP_pressure;BME280_temperature;BME280_humidity;BME280_pressure;Samples;Min_cycle;Max_cycle;Signal;HPM_P1;HPM_P2
2022/07/28 00:00:13;;;;;;;;;1.00;1.00;;;;;14.89;53.38;100246.25;5137175;27;8856;-61
2022/07/28 00:02:41;;;;;;;;;0.00;0.00;;;;;14.88;53.81;100254.44;5137047;27;9578;-61
2022/07/28 00:05:09;;;;;;;;;0.00;0.00;;;;;14.85;53.99;100255.56;5136876;27;8818;-61
2022/07/28 00:07:37;;;;;;;;;1.50;1.50;;;;;14.83;53.90;100257.53;5137023;27;8852;-61
2022/07/28 00:10:05;;;;;;;;;0.50;0.50;;;;;14.83;53.33;100254.00;5120359;27;8958;-61
2022/07/28 00:12:32;;;;;;;;;1.00;0.75;;;;;14.83;53.23;100254.84;5116325;28;8848;-61
2022/07/28 00:15:00;;;;;;;;;0.50;0.50;;;;;14.84;53.57;100245.81;5116796;28;8812;-61
2022/07/28 00:17:28;;;;;;;;;0.00;0.00;;;;;14.86;53.66;100240.31;5116864;28;8847;-61
2022/07/28 00:19:56;;;;;;;;;1.00;1.00;;;;;14.86;53.60;100245.69;5116591;28;8828;-61
2022/07/28 00:22:24;;;;;;;;;1.00;1.00;;;;;14.85;53.03;100243.97;5116528;28;8947;-61
2022/07/28 00:24:52;;;;;;;;;0.50;0.50;;;;;14.83;53.73;100245.94;5116299;28;9656;-61
2022/07/28 00:27:20;;;;;;;;;3.00;1.00;;;;;14.81;53.39;100239.88;5116939;27;9776;-61
2022/07/28 00:29:47;;;;;;;;;2.00;1.00;;;;;14.80;53.76;100230.16;5135891;27;8853;-61
2022/07/28 00:32:17;;;;;;;;;0.75;0.75;;;;;14.81;53.25;100237.22;5135700;27;8972;-61
2022/07/28 00:34:45;;;;;;;;;0.50;0.00;;;;;14.81;53.31;100232.66;5136748;27;8891;-61
2022/07/28 00:37:14;;;;;;;;;2.50;1.00;;;;;14.79;53.56;100233.81;5136337;27;8822;-62
2022/07/28 00:39:41;;;;;;;;;0.75;0.75;;;;;14.81;53.19;100231.84;5137076;27;8849;-62
2022/07/28 00:42:09;;;;;;;;;1.50;1.00;;;;;14.84;53.76;100227.03;5136560;27;8968;-61
2022/07/28 00:44:40;;;;;;;;;0.50;0.50;;;;;14.91;53.72;100228.16;5136410;27;8822;-61
2022/07/28 00:47:08;;;;;;;;;1.00;1.00;;;;;14.98;53.67;100223.94;5136270;27;9054;-61
2022/07/28 00:49:36;;;;;;;;;1.50;1.50;;;;;15.05;53.09;100224.19;5136550;27;8948;-61
2022/07/28 00:52:04;;;;;;;;;2.00;1.00;;;;;15.12;52.95;100214.59;5136162;27;8822;-62
2022/07/28 00:54:32;;;;;;;;;1.50;1.00;;;;;15.16;53.01;100216.84;5136061;27;8837;-61
2022/07/28 00:57:00;;;;;;;;;1.00;1.00;;;;;15.18;53.58;100219.38;5136435;27;8857;-64
2022/07/28 00:59:27;;;;;;;;;2.00;2.00;;;;;15.19;53.69;100219.25;5118143;28;8836;-62
2022/07/28 01:01:56;;;;;;;;;2.00;2.00;;;;;15.20;53.76;100218.25;5115927;28;8836;-61
2022/07/28 01:04:24;;;;;;;;;2.50;2.50;;;;;15.22;53.23;100216.25;5119592;28;8971;-61
2022/07/28 01:06:52;;;;;;;;;0.00;0.00;;;;;15.25;53.94;100215.13;5119683;28;8942;-64
2022/07/28 01:09:20;;;;;;;;;2.50;2.00;;;;;15.22;54.21;100212.72;5119916;28;8902;-62
2022/07/28 01:11:48;;;;;;;;;1.50;0.50;;;;;15.11;54.13;100218.25;5119418;28;8983;-62
2022/07/28 01:14:16;;;;;;;;;3.25;3.25;;;;;14.98;54.21;100213.22;5119875;28;8854;-62
2022/07/28 01:16:46;;;;;;;;;1.00;1.00;;;;;14.85;54.33;100218.00;5119468;28;8839;-62
2022/07/28 01:19:13;;;;;;;;;1.00;1.00;;;;;14.73;54.83;100218.31;5129648;27;8995;-62
2022/07/28 01:21:41;;;;;;;;;3.00;3.00;;;;;14.62;55.33;100211.25;5139831;27;9665;-62
2022/07/28 01:24:09;;;;;;;;;1.00;1.00;;;;;14.51;54.78;100213.22;5139741;27;8838;-62
2022/07/28 01:26:38;;;;;;;;;2.00;1.00;;;;;14.43;55.50;100215.75;5140151;27;8852;-63
2022/07/28 01:29:06;;;;;;;;;3.00;3.00;;;;;14.34;55.33;100221.94;5139588;27;9488;-63
2022/07/28 01:31:34;;;;;;;;;2.50;2.50;;;;;14.26;55.62;100213.75;5140374;27;8955;-63
2022/07/28 01:34:03;;;;;;;;;3.00;1.00;;;;;14.20;55.67;100211.63;5140226;27;8850;-63
2022/07/28 01:36:30;;;;;;;;;1.50;1.50;;;;;14.17;56.03;100203.81;5139291;27;8944;-62
2022/07/28 01:38:58;;;;;;;;;2.75;1.50;;;;;14.16;55.33;100202.13;5139337;27;8837;-63
2022/07/28 01:41:26;;;;;;;;;1.00;0.50;;;;;14.14;55.20;100204.97;5139353;27;8996;-62
2022/07/28 01:43:54;;;;;;;;;3.00;1.00;;;;;14.14;55.96;100207.66;5139917;27;8838;-62
2022/07/28 01:46:22;;;;;;;;;1.00;1.00;;;;;14.14;55.87;100206.78;5138637;27;8960;-63
2022/07/28 01:48:50;;;;;;;;;0.50;0.50;;;;;14.13;55.60;100205.09;5118911;27;8838;-63
2022/07/28 01:51:18;;;;;;;;;1.00;1.00;;;;;14.13;56.13;100199.75;5117878;28;8842;-63
2022/07/28 01:53:45;;;;;;;;;4.00;3.25;;;;;14.20;55.92;100195.56;5117600;28;8848;-63
2022/07/28 01:56:13;;;;;;;;;1.50;1.50;;;;;14.23;55.51;100197.94;5117590;28;8836;-64
2022/07/28 01:58:41;;;;;;;;;1.00;1.00;;;;;14.25;55.52;100190.59;5117721;28;8827;-62
2022/07/28 02:01:09;;;;;;;;;1.00;1.00;;;;;14.29;56.12;100197.41;5119115;28;8844;-63
2022/07/28 02:03:37;;;;;;;;;1.00;1.00;;;;;14.33;55.27;100199.66;5118832;28;8839;-63
2022/07/28 02:06:05;;;;;;;;;0.75;0.75;;;;;14.38;55.68;100194.75;5118992;28;8949;-62
2022/07/28 02:08:33;;;;;;;;;1.50;1.00;;;;;14.40;55.46;100190.06;5118727;28;8834;-63
2022/07/28 02:13:45;;;;;;;;;1.00;1.00;;;;;14.41;55.50;100186.41;5111402;28;8899;-63
2022/07/28 02:16:13;;;;;;;;;2.00;2.00;;;;;14.38;55.44;100185.84;5118377;28;8946;-62
2022/07/28 02:18:41;;;;;;;;;2.25;2.00;;;;;14.36;55.82;100190.50;5137143;27;8830;-63
2022/07/28 02:21:08;;;;;;;;;1.00;1.00;;;;;14.32;56.48;100181.91;5138862;27;8957;-62
2022/07/28 02:23:36;;;;;;;;;2.50;2.50;;;;;14.30;56.16;100183.88;5139211;27;8952;-63
2022/07/28 02:26:05;;;;;;;;;3.50;2.00;;;;;14.31;55.88;100190.06;5138486;27;8802;-62
2022/07/28 02:28:32;;;;;;;;;1.00;1.00;;;;;14.30;56.39;100189.22;5138623;27;8936;-62
2022/07/28 02:31:00;;;;;;;;;0.00;0.00;;;;;14.24;56.70;100183.56;5139372;27;8849;-64
2022/07/28 02:33:28;;;;;;;;;3.00;2.50;;;;;14.16;56.73;100186.06;5138567;27;8830;-63
2022/07/28 02:36:15;;;;;;;;;1.50;1.50;;;;;14.09;56.45;100182.25;5138401;27;8826;-63
2022/07/28 02:38:44;;;;;;;;;3.75;3.25;;;;;14.07;56.69;100181.53;5138878;27;8822;-62
2022/07/28 02:41:12;;;;;;;;;1.00;1.00;;;;;14.09;56.38;100175.06;5138410;27;8883;-63
2022/07/28 02:43:40;;;;;;;;;1.00;1.00;;;;;14.08;56.56;100168.03;5137945;27;8830;-61
2022/07/28 02:46:16;;;;;;;;;1.00;1.00;;;;;14.05;56.92;100167.44;5138235;27;8837;-63
2022/07/28 02:48:44;;;;;;;;;1.00;1.00;;;;;14.07;57.15;100171.69;5118777;27;8847;-62
2022/07/28 02:51:12;;;;;;;;;2.50;2.50;;;;;14.09;57.34;100175.06;5117795;28;8874;-61
2022/07/28 02:53:40;;;;;;;;;6.00;3.00;;;;;14.07;56.93;100177.03;5117359;28;8958;-62
2022/07/28 02:56:07;;;;;;;;;4.00;3.00;;;;;14.04;57.42;100160.41;5116779;28;8842;-62
2022/07/28 02:58:36;;;;;;;;;3.00;3.00;;;;;14.03;57.27;100161.41;5116548;28;8854;-63
2022/07/28 03:01:04;;;;;;;;;1.00;1.00;;;;;14.00;57.01;100159.84;5116337;28;8941;-63
2022/07/28 03:03:32;;;;;;;;;0.00;0.00;;;;;13.97;57.73;100161.94;5116993;28;9501;-62
2022/07/28 03:06:00;;;;;;;;;1.00;1.00;;;;;13.94;57.91;100165.72;5116450;28;8872;-62
2022/07/28 03:08:28;;;;;;;;;3.00;2.50;;;;;13.89;57.26;100167.13;5116171;28;8852;-63
2022/07/28 03:10:55;;;;;;;;;1.00;1.00;;;;;13.79;57.87;100174.28;5116171;28;8945;-62
2022/07/28 03:13:23;;;;;;;;;1.00;1.00;;;;;13.68;57.87;100172.56;5116370;28;8866;-63
2022/07/28 03:15:51;;;;;;;;;1.00;1.00;;;;;13.61;58.35;100167.91;5116400;28;8974;-63
2022/07/28 03:18:19;;;;;;;;;1.00;1.00;;;;;13.54;58.18;100167.59;5132510;27;8834;-62
2022/07/28 03:20:47;;;;;;;;;1.00;0.75;;;;;13.50;58.06;100178.69;5137871;27;8883;-63
2022/07/28 03:23:14;;;;;;;;;2.00;2.00;;;;;13.50;58.31;100171.50;5137585;27;8844;-62
2022/07/28 03:25:42;;;;;;;;;3.25;2.00;;;;;13.50;58.07;100170.66;5136944;27;8956;-62
2022/07/28 03:28:12;;;;;;;;;1.00;1.00;;;;;13.54;58.35;100164.06;5137548;27;8940;-62
2022/07/28 03:30:40;;;;;;;;;1.00;1.00;;;;;13.59;57.94;100164.50;5137581;27;8997;-62
2022/07/28 03:33:08;;;;;;;;;4.00;3.00;;;;;13.61;58.26;100163.41;5137829;27;8887;-63
2022/07/28 03:35:35;;;;;;;;;2.50;1.00;;;;;13.56;58.04;100159.41;5137654;27;8842;-63
2022/07/28 03:38:03;;;;;;;;;3.25;3.00;;;;;13.49;57.94;100168.97;5137060;27;8939;-62
2022/07/28 03:40:31;;;;;;;;;3.00;3.00;;;;;13.44;58.39;100164.00;5137419;27;8944;-63
2022/07/28 03:42:59;;;;;;;;;2.50;2.50;;;;;13.41;58.59;100174.13;5137365;27;8849;-61
2022/07/28 03:45:27;;;;;;;;;0.00;0.00;;;;;13.31;58.65;100176.78;5137527;27;8860;-63
2022/07/28 03:47:55;;;;;;;;;3.50;3.50;;;;;13.23;58.82;100175.75;5122558;27;8828;-63
2022/07/28 03:50:23;;;;;;;;;3.00;3.00;;;;;13.13;58.89;100172.19;5116546;28;8823;-63
2022/07/28 03:52:50;;;;;;;;;0.75;0.75;;;;;13.05;59.32;100174.69;5116257;28;8957;-62
2022/07/28 03:55:18;;;;;;;;;3.00;3.00;;;;;12.97;59.34;100182.47;5115973;28;8864;-62
2022/07/28 03:57:46;;;;;;;;;6.50;6.00;;;;;12.89;59.23;100179.59;5116590;28;8978;-62
2022/07/28 04:00:14;;;;;;;;;2.50;2.50;;;;;12.83;59.75;100178.28;5116509;28;8977;-62
2022/07/28 04:02:43;;;;;;;;;3.50;1.00;;;;;12.81;59.47;100179.38;5115272;28;8836;-62
2022/07/28 04:05:11;;;;;;;;;2.00;1.00;;;;;12.87;59.67;100179.75;5115859;28;9604;-62
2022/07/28 04:07:39;;;;;;;;;3.50;3.50;;;;;12.90;59.19;100170.63;5115955;28;8847;-62
2022/07/28 04:10:07;;;;;;;;;3.75;3.75;;;;;12.92;59.27;100174.81;5115461;28;8827;-63
2022/07/28 04:12:35;;;;;;;;;3.00;3.00;;;;;12.90;59.04;100176.78;5115621;28;8986;-62
2022/07/28 04:15:02;;;;;;;;;1.50;1.50;;;;;12.88;59.71;100183.25;5116035;28;8836;-62
2022/07/28 04:17:30;;;;;;;;;1.00;1.00;;;;;12.87;59.83;100184.22;5126378;27;8821;-63
2022/07/28 04:19:58;;;;;;;;;2.50;2.00;;;;;12.84;59.62;100185.31;5136012;27;8821;-63
2022/07/28 04:22:26;;;;;;;;;3.25;3.00;;;;;12.85;59.59;100178.16;5136336;27;8943;-62
2022/07/28 04:24:53;;;;;;;;;2.25;2.00;;;;;12.86;59.69;100170.03;5136201;27;8829;-63
2022/07/28 04:27:21;;;;;;;;;1.00;1.00;;;;;12.92;59.69;100174.81;5136900;27;8952;-63
2022/07/28 04:29:49;;;;;;;;;3.00;1.00;;;;;13.00;59.07;100171.53;5136832;27;8896;-63
2022/07/28 04:32:17;;;;;;;;;1.00;1.00;;;;;13.09;58.89;100170.75;5136549;27;8971;-64
2022/07/28 04:34:44;;;;;;;;;0.00;0.00;;;;;13.24;58.75;100172.09;5136210;27;8829;-61
2022/07/28 04:37:13;;;;;;;;;1.50;1.50;;;;;13.38;58.44;100174.41;5134303;27;8988;-63
2022/07/28 04:39:41;;;;;;;;;0.00;0.00;;;;;13.51;57.98;100169.69;5138549;27;8848;-62
2022/07/28 04:42:09;;;;;;;;;2.50;2.50;;;;;13.63;58.04;100173.94;5138877;27;8922;-62
2022/07/28 04:44:41;;;;;;;;;2.75;2.50;;;;;13.73;57.61;100166.81;5140392;27;8826;-62
2022/07/28 04:47:09;;;;;;;;;3.25;2.50;;;;;13.84;57.66;100174.72;5135973;27;8846;-62
2022/07/28 04:49:37;;;;;;;;;3.00;3.00;;;;;13.93;57.32;100172.06;5140432;27;8980;-62
2022/07/28 04:52:05;;;;;;;;;1.00;1.00;;;;;14.00;57.62;100170.53;5140582;27;8826;-62
2022/07/28 04:54:32;;;;;;;;;4.00;3.00;;;;;14.08;57.51;100170.69;5140888;27;8822;-62
2022/07/28 04:57:01;;;;;;;;;2.00;2.00;;;;;14.16;57.47;100167.31;5140331;27;8830;-63
2022/07/28 04:59:34;;;;;;;;;3.25;3.25;;;;;14.29;57.27;100168.78;5140068;27;8856;-63
2022/07/28 05:02:02;;;;;;;;;3.00;3.00;;;;;14.42;57.02;100163.16;5140678;27;8821;-62
2022/07/28 05:04:30;;;;;;;;;3.00;3.00;;;;;14.45;56.91;100166.41;5140466;27;8841;-62
2022/07/28 05:06:58;;;;;;;;;3.00;3.00;;;;;14.52;56.78;100172.03;5139760;27;8814;-62
2022/07/28 05:09:26;;;;;;;;;1.50;1.00;;;;;14.60;56.52;100169.47;5139619;27;8843;-61
2022/07/28 05:11:53;;;;;;;;;5.50;5.00;;;;;14.67;56.23;100176.84;5139707;27;8837;-62
2022/07/28 05:14:21;;;;;;;;;6.25;3.00;;;;;14.72;56.66;100168.34;5139131;27;8948;-62
2022/07/28 05:16:49;;;;;;;;;4.00;4.00;;;;;14.76;56.40;100175.97;5131263;27;8848;-61
2022/07/28 05:19:17;;;;;;;;;3.00;3.00;;;;;14.76;56.61;100167.94;5119083;28;8838;-62
2022/07/28 05:21:46;;;;;;;;;1.00;1.00;;;;;14.73;56.48;100164.69;5119092;28;8905;-62
2022/07/28 05:24:13;;;;;;;;;3.50;2.50;;;;;14.67;57.39;100166.09;5118514;28;8831;-62
2022/07/28 05:26:42;;;;;;;;;4.00;4.00;;;;;14.60;57.12;100166.81;5119688;28;8838;-65
2022/07/28 05:29:09;;;;;;;;;3.75;3.75;;;;;14.54;57.78;100168.22;5118384;28;8840;-62
2022/07/28 05:31:37;;;;;;;;;4.00;3.25;;;;;14.53;57.44;100163.84;5118541;28;8823;-62
2022/07/28 05:34:06;;;;;;;;;3.00;3.00;;;;;14.54;57.56;100159.31;5101825;28;8960;-62
2022/07/28 05:36:34;;;;;;;;;3.00;3.00;;;;;14.60;57.82;100164.97;5097511;28;8822;-63
2022/07/28 05:39:02;;;;;;;;;4.00;4.00;;;;;14.67;57.83;100166.09;5096370;28;8956;-61
2022/07/28 05:41:30;;;;;;;;;3.00;3.00;;;;;14.75;57.53;100168.06;5097327;28;8846;-62
2022/07/28 05:44:00;;;;;;;;;7.00;5.50;;;;;14.81;57.40;100162.97;5097055;28;8830;-62
2022/07/28 05:46:27;;;;;;;;;3.00;3.00;;;;;14.87;57.61;100162.41;5105030;28;8816;-62
2022/07/28 05:48:55;;;;;;;;;3.00;3.00;;;;;14.93;56.93;100158.28;5116848;28;8949;-63
2022/07/28 05:51:23;;;;;;;;;3.75;3.00;;;;;15.00;56.76;100159.41;5116451;28;8870;-63
2022/07/28 05:53:51;;;;;;;;;3.50;3.50;;;;;15.08;57.08;100151.47;5116991;28;8847;-62
2022/07/28 05:56:20;;;;;;;;;3.00;2.50;;;;;15.13;57.41;100146.53;5115395;28;8970;-62
2022/07/28 05:58:48;;;;;;;;;2.50;2.50;;;;;15.20;57.20;100147.63;5116320;28;8962;-62
2022/07/28 06:01:15;;;;;;;;;3.50;1.50;;;;;15.33;57.23;100153.56;5115472;28;8855;-62
2022/07/28 06:03:43;;;;;;;;;3.00;3.00;;;;;15.51;56.13;100146.41;5115888;28;8970;-63
2022/07/28 06:06:24;;;;;;;;;3.25;3.00;;;;;15.77;55.96;100152.81;5115699;28;8858;-63
2022/07/28 06:08:52;;;;;;;;;2.00;2.00;;;;;15.92;56.02;100154.81;5115776;28;8974;-62
2022/07/28 06:11:20;;;;;;;;;3.00;3.00;;;;;16.03;55.87;100159.13;5115065;28;8970;-62
2022/07/28 06:13:49;;;;;;;;;1.50;1.50;;;;;16.15;55.57;100166.00;5114269;28;8852;-62
2022/07/28 06:16:18;;;;;;;;;3.00;1.00;;;;;16.20;55.52;100162.69;5107803;28;8888;-62
2022/07/28 06:18:46;;;;;;;;;2.50;1.00;;;;;16.25;55.46;100160.38;5094981;28;8842;-64
2022/07/28 06:21:14;;;;;;;;;2.50;2.50;;;;;16.32;55.96;100158.78;5095375;28;8833;-62
2022/07/28 06:23:42;;;;;;;;;1.00;1.00;;;;;16.41;55.82;100160.56;5095040;28;8838;-63
2022/07/28 06:26:09;;;;;;;;;1.00;0.75;;;;;16.50;54.97;100153.44;5112195;28;8835;-63
2022/07/28 06:28:38;;;;;;;;;1.00;1.00;;;;;16.57;55.49;100154.53;5115658;28;8820;-63
2022/07/28 06:31:05;;;;;;;;;1.50;1.00;;;;;16.62;55.20;100157.59;5115496;28;8940;-64
2022/07/28 06:33:33;;;;;;;;;1.50;1.50;;;;;16.64;55.34;100147.53;5085592;27;1212790;-63
2022/07/28 06:36:01;;;;;;;;;1.00;1.00;;;;;16.67;55.70;100153.44;5136922;27;8914;-61
2022/07/28 06:38:30;;;;;;;;;3.40;3.00;;;;;16.71;55.34;100149.41;5137768;27;8829;-62
2022/07/28 06:40:58;;;;;;;;;2.00;2.00;;;;;16.81;55.71;100150.19;5137803;27;8829;-63
2022/07/28 06:43:27;;;;;;;;;3.00;2.00;;;;;16.93;55.53;100140.03;5138040;27;8950;-62
2022/07/28 06:45:54;;;;;;;;;0.40;0.40;;;;;17.05;55.18;100141.44;5137458;27;8988;-63
2022/07/28 06:48:22;;;;;;;;;2.50;2.50;;;;;17.15;54.76;100145.72;5136385;27;8829;-63
2022/07/28 06:50:58;;;;;;;;;1.00;1.00;;;;;17.28;54.82;100140.75;5136581;27;8845;-62
2022/07/28 06:53:26;;;;;;;;;1.00;1.00;;;;;17.42;54.94;100142.88;5136395;27;8817;-62
2022/07/28 06:56:00;;;;;;;;;0.80;0.80;;;;;17.62;54.18;100143.50;5120846;27;8816;-62
2022/07/28 06:58:28;;;;;;;;;1.00;1.00;;;;;17.80;54.04;100146.91;5115849;28;8835;-62
2022/07/28 07:00:55;;;;;;;;;1.80;1.00;;;;;17.96;53.60;100150.50;5116104;28;8969;-63
2022/07/28 07:03:23;;;;;;;;;1.00;1.00;;;;;18.08;53.33;100135.72;5116887;28;8848;-64
2022/07/28 07:05:51;;;;;;;;;1.00;1.00;;;;;18.19;53.52;100145.34;5117566;28;8854;-64
2022/07/28 07:08:20;;;;;;;;;1.80;1.00;;;;;18.27;53.19;100151.59;5116544;28;8904;-62
2022/07/28 07:10:48;;;;;;;;;2.60;1.80;;;;;18.34;53.46;100141.88;5116095;28;8978;-62
2022/07/28 07:13:15;;;;;;;;;1.00;1.00;;;;;18.44;52.74;100141.72;5116186;28;8828;-63
2022/07/28 07:15:43;;;;;;;;;2.20;1.40;;;;;18.55;52.76;100139.53;5116067;28;8990;-62
2022/07/28 07:18:11;;;;;;;;;1.00;1.00;;;;;18.68;52.74;100137.16;5115660;28;8942;-69
2022/07/28 07:20:39;;;;;;;;;0.80;0.80;;;;;18.87;52.67;100142.25;5115749;28;8820;-63
2022/07/28 07:23:07;;;;;;;;;2.60;1.00;;;;;18.97;52.19;100134.78;5116467;28;9859;-63
2022/07/28 07:25:34;;;;;;;;;3.00;1.80;;;;;19.08;52.06;100142.56;5132073;27;8932;-61
2022/07/28 07:28:02;;;;;;;;;3.00;3.00;;;;;19.21;51.58;100131.25;5136891;27;8814;-62
2022/07/28 07:30:30;;;;;;;;;1.00;1.00;;;;;19.34;51.79;100135.09;5137353;27;8833;-62
2022/07/28 07:32:58;;;;;;;;;1.00;1.00;;;;;19.46;51.01;100135.56;5135722;27;8933;-62
2022/07/28 07:35:26;;;;;;;;;0.80;0.80;;;;;19.57;51.31;100129.81;5137415;27;8833;-65
2022/07/28 07:37:55;;;;;;;;;3.00;1.00;;;;;19.69;51.17;100134.66;5136849;27;8857;-62
2022/07/28 07:40:23;;;;;;;;;1.20;1.20;;;;;19.80;51.04;100128.84;5136172;27;8905;-62
2022/07/28 07:42:50;;;;;;;;;2.20;1.00;;;;;19.89;50.89;100122.38;5135747;27;8918;-62
2022/07/28 07:45:18;;;;;;;;;1.00;1.00;;;;;19.95;50.83;100118.13;5136021;27;8940;-62
2022/07/28 07:47:46;;;;;;;;;1.00;1.00;;;;;20.05;50.68;100119.63;5136565;27;8844;-62
2022/07/28 07:50:14;;;;;;;;;3.00;2.20;;;;;20.14;50.36;100115.84;5136370;27;8846;-62
2022/07/28 07:52:41;;;;;;;;;2.80;2.20;;;;;20.23;50.51;100109.38;5136546;27;8896;-61
2022/07/28 07:55:09;;;;;;;;;1.20;1.20;;;;;20.29;50.51;100103.25;5123155;27;8877;-62
2022/07/28 07:57:37;;;;;;;;;3.20;1.20;;;;;20.39;49.96;100097.59;5115831;28;8947;-62
2022/07/28 08:00:05;;;;;;;;;2.00;1.40;;;;;20.50;49.67;100099.88;5115998;28;8871;-62
2022/07/28 08:02:33;;;;;;;;;2.00;2.00;;;;;20.55;49.63;100097.47;5115969;28;8820;-62
2022/07/28 08:05:00;;;;;;;;;1.40;1.40;;;;;20.58;50.03;100103.38;5115660;28;8979;-62
2022/07/28 08:07:28;;;;;;;;;1.00;1.00;;;;;20.65;49.50;100100.75;5115205;28;8816;-62
2022/07/28 08:09:56;;;;;;;;;1.00;1.00;;;;;20.71;49.67;100095.44;5115834;28;8934;-62
2022/07/28 08:12:23;;;;;;;;;3.60;1.20;;;;;20.78;49.63;100099.97;5115476;28;8970;-62
2022/07/28 08:14:52;;;;;;;;;1.00;1.00;;;;;20.81;49.15;100102.28;5115506;28;8920;-62
2022/07/28 08:17:20;;;;;;;;;1.80;1.80;;;;;20.81;49.15;100093.34;5114911;28;8938;-62
2022/07/28 08:19:52;;;;;;;;;2.00;2.00;;;;;20.88;49.09;100097.03;5115851;28;8831;-62
2022/07/28 08:22:20;;;;;;;;;2.00;1.60;;;;;20.91;49.04;100099.38;5115286;28;8819;-62
2022/07/28 08:24:48;;;;;;;;;2.00;2.00;;;;;20.96;49.44;100094.25;5123468;27;8814;-67
2022/07/28 08:27:16;;;;;;;;;2.00;2.00;;;;;21.02;48.87;100090.81;5135330;27;8829;-62
2022/07/28 08:29:43;;;;;;;;;2.00;2.00;;;;;21.09;49.16;100091.72;5116478;27;8860;-62
2022/07/28 08:32:11;;;;;;;;;1.00;1.00;;;;;21.17;48.65;100089.78;5136219;27;9695;-62
2022/07/28 08:34:39;;;;;;;;;1.40;1.40;;;;;21.31;48.82;100093.50;5135722;27;8829;-62
2022/07/28 08:37:08;;;;;;;;;2.00;1.00;;;;;21.39;48.15;100096.13;5135656;27;8980;-63
2022/07/28 08:39:36;;;;;;;;;2.00;1.00;;;;;21.47;48.33;100087.91;5135213;27;8856;-62
2022/07/28 08:42:04;;;;;;;;;1.00;1.00;;;;;21.53;48.53;100092.56;5135279;27;8852;-63
2022/07/28 08:44:31;;;;;;;;;1.40;1.20;;;;;21.58;48.08;100088.28;5134540;27;8830;-62
2022/07/28 08:46:59;;;;;;;;;1.80;1.80;;;;;21.66;48.25;100090.94;5134331;27;8964;-62
2022/07/28 08:49:27;;;;;;;;;1.00;1.00;;;;;21.78;47.57;100083.16;5134006;27;8960;-62
2022/07/28 08:51:55;;;;;;;;;1.00;1.00;;;;;21.91;47.14;100084.16;5134818;27;8826;-62
2022/07/28 08:54:23;;;;;;;;;0.60;0.60;;;;;22.06;47.49;100071.38;5125308;28;8831;-62
2022/07/28 08:56:51;;;;;;;;;1.00;1.00;;;;;22.17;47.05;100078.19;5114058;28;8986;-62
2022/07/28 08:59:19;;;;;;;;;2.00;1.00;;;;;22.26;47.03;100087.88;5114619;28;8847;-62
2022/07/28 09:01:46;;;;;;;;;2.00;2.00;;;;;22.34;46.62;100076.88;5114639;28;8851;-62
2022/07/28 09:04:16;;;;;;;;;1.00;1.00;;;;;22.38;46.80;100079.03;5114015;28;8859;-62
2022/07/28 09:06:45;;;;;;;;;1.00;1.00;;;;;22.43;46.58;100073.91;5117867;27;8829;-62
2022/07/28 09:09:12;;;;;;;;;1.40;1.40;;;;;22.47;46.82;100083.31;5133415;27;8817;-62
2022/07/28 09:11:40;;;;;;;;;1.00;1.00;;;;;22.52;46.24;100077.28;5126646;28;8832;-62
2022/07/28 09:14:09;;;;;;;;;1.20;1.20;;;;;22.57;46.32;100078.41;5115308;27;8908;-62
2022/07/28 09:16:38;;;;;;;;;0.80;0.80;;;;;22.61;46.09;100079.69;5133884;27;8822;-62
2022/07/28 09:19:05;;;;;;;;;1.00;1.00;;;;;22.67;46.33;100078.06;5134009;27;8810;-62
2022/07/28 09:21:33;;;;;;;;;2.00;2.00;;;;;22.73;46.00;100071.84;5134091;27;8826;-62
2022/07/28 09:24:01;;;;;;;;;2.00;2.00;;;;;22.83;45.63;100070.47;5122737;27;8836;-63
2022/07/28 09:26:29;;;;;;;;;1.20;1.20;;;;;22.94;45.30;100072.66;5136961;27;8940;-62
2022/07/28 09:28:56;;;;;;;;;2.00;2.00;;;;;23.02;45.53;100066.22;5130100;27;8814;-62
2022/07/28 09:31:24;;;;;;;;;1.60;1.60;;;;;23.15;45.27;100077.22;5118967;27;8832;-63
2022/07/28 09:33:52;;;;;;;;;1.00;1.00;;;;;23.23;45.05;100074.34;5102448;28;8848;-62
2022/07/28 09:36:20;;;;;;;;;1.60;1.60;;;;;23.28;45.34;100066.44;5097791;28;8829;-62
2022/07/28 09:38:48;;;;;;;;;2.00;2.00;;;;;23.41;44.67;100063.78;5096504;28;8985;-62
2022/07/28 09:41:20;;;;;;;;;1.00;1.00;;;;;23.58;44.90;100073.31;5097005;28;9825;-62
2022/07/28 09:43:48;;;;;;;;;2.00;2.00;;;;;23.75;43.99;100071.91;5095780;28;8945;-62
2022/07/28 09:46:22;;;;;;;;;1.00;1.00;;;;;23.94;43.88;100071.16;5101039;28;8816;-62
2022/07/28 09:48:50;;;;;;;;;3.40;2.00;;;;;24.17;43.20;100053.44;5117056;28;8957;-62
2022/07/28 09:51:18;;;;;;;;;2.00;2.00;;;;;24.46;43.20;100049.50;5114533;28;8839;-62
2022/07/28 09:53:46;;;;;;;;;1.00;1.00;;;;;24.72;42.30;100049.56;5116987;28;8835;-62
2022/07/28 09:56:14;;;;;;;;;2.00;2.00;;;;;24.86;41.94;100046.59;5113331;28;8879;-63
2022/07/28 09:58:41;;;;;;;;;1.20;1.20;;;;;25.12;41.94;100040.28;5106438;28;8858;-62
2022/07/28 10:01:09;;;;;;;;;0.60;0.60;;;;;25.45;41.53;100036.47;5100429;28;8978;-61
2022/07/28 10:03:39;;;;;;;;;2.20;2.00;;;;;25.83;40.61;100040.94;5114874;28;9484;-61
2022/07/28 10:06:08;;;;;;;;;1.20;1.20;;;;;26.22;40.47;100037.16;5096896;28;9880;-63
2022/07/28 10:08:35;;;;;;;;;2.00;1.00;;;;;26.56;40.05;100040.28;5097674;28;8903;-62
2022/07/28 10:11:08;;;;;;;;;2.00;1.80;;;;;26.92;39.88;100032.19;5098229;28;8810;-62
2022/07/28 10:13:36;;;;;;;;;1.00;1.00;;;;;27.25;39.00;100038.19;5097754;28;8827;-62
2022/07/28 10:16:12;;;;;;;;;1.00;1.00;;;;;27.59;38.32;100029.41;5096496;28;8945;-63
2022/07/28 10:18:40;;;;;;;;;2.20;2.20;;;;;27.88;38.38;100025.91;5096496;28;8853;-62
2022/07/28 10:21:08;;;;;;;;;2.80;2.80;;;;;28.20;37.53;100019.09;5096999;28;8827;-62
2022/07/28 10:23:35;;;;;;;;;2.00;2.00;;;;;28.50;37.88;100016.34;5115027;28;8805;-63
2022/07/28 10:26:03;;;;;;;;;2.00;2.00;;;;;28.88;37.08;100009.38;5114825;28;8843;-61
2022/07/28 10:28:39;;;;;;;;;2.00;2.00;;;;;29.14;36.47;100019.06;5105534;28;8844;-62
2022/07/28 10:31:08;;;;;;;;;2.80;2.80;;;;;29.36;36.64;100022.84;5116734;28;8889;-62
2022/07/28 10:33:36;;;;;;;;;0.40;0.20;;;;;29.57;36.09;100020.31;5129910;27;9604;-62
2022/07/28 10:36:04;;;;;;;;;2.00;2.00;;;;;29.77;36.31;100020.75;5130136;27;8843;-61
2022/07/28 10:38:33;;;;;;;;;1.00;1.00;;;;;29.94;35.83;100016.16;5117188;27;8978;-61
2022/07/28 10:41:00;;;;;;;;;2.20;2.00;;;;;30.14;35.99;100013.84;5135475;27;8918;-61
2022/07/28 10:43:29;;;;;;;;;0.20;0.20;;;;;30.23;35.07;100015.09;5137013;27;8828;-61
2022/07/28 10:45:57;;;;;;;;;2.00;2.00;;;;;30.37;35.17;100008.22;5136492;27;8826;-62
2022/07/28 10:48:36;;;;;;;;;1.00;1.00;;;;;30.59;35.04;100006.41;5134835;27;8828;-62
2022/07/28 10:51:04;;;;;;;;;1.40;1.00;;;;;30.71;34.81;99995.34;5123323;27;8829;-62
2022/07/28 10:53:32;;;;;;;;;1.00;1.00;;;;;30.88;34.85;100002.50;5136031;27;8826;-62
2022/07/28 10:56:04;;;;;;;;;1.40;1.40;;;;;30.98;34.05;99997.97;5120976;27;8843;-62
2022/07/28 10:58:31;;;;;;;;;2.20;2.20;;;;;31.18;34.05;100003.00;5116090;28;8864;-64
2022/07/28 11:00:59;;;;;;;;;2.00;2.00;;;;;31.40;34.34;100001.06;5116897;28;8859;-61
2022/07/28 11:03:32;;;;;;;;;3.00;3.00;;;;;31.69;33.54;99999.78;5115354;28;8839;-61
2022/07/28 11:06:00;;;;;;;;;2.00;2.00;;;;;31.93;33.18;99998.47;5115210;28;8854;-61
2022/07/28 11:08:28;;;;;;;;;2.00;2.00;;;;;32.13;33.20;99993.16;5132447;27;9471;-61
2022/07/28 11:10:56;;;;;;;;;1.80;1.40;;;;;32.25;32.49;99991.13;5135543;27;8863;-62
2022/07/28 11:13:35;;;;;;;;;1.60;1.60;;;;;32.36;32.14;99996.47;5135520;27;8914;-61
2022/07/28 11:16:07;;;;;;;;;3.00;3.00;;;;;32.48;32.23;100001.81;5134453;27;8849;-62
2022/07/28 11:18:37;;;;;;;;;2.60;2.00;;;;;32.58;32.60;99994.47;5135754;27;8822;-61
2022/07/28 11:21:07;;;;;;;;;2.00;2.00;;;;;32.68;32.50;99996.47;5135926;27;8918;-62
2022/07/28 11:23:35;;;;;;;;;3.00;3.00;;;;;32.58;32.24;99996.38;5134520;27;8829;-61
2022/07/28 11:26:03;;;;;;;;;2.00;2.00;;;;;32.45;32.24;99996.81;5135460;27;8926;-61
2022/07/28 11:28:31;;;;;;;;;3.00;2.20;;;;;32.51;32.10;99993.00;5134189;27;9861;-62
2022/07/28 11:30:59;;;;;;;;;3.20;2.60;;;;;32.62;31.43;99989.25;5115797;27;8985;-62
2022/07/28 11:33:28;;;;;;;;;2.00;2.00;;;;;32.72;31.30;99978.28;5132909;27;8861;-61
2022/07/28 11:35:55;;;;;;;;;2.20;2.20;;;;;32.99;31.07;99984.59;5133497;27;8822;-61
2022/07/28 11:38:23;;;;;;;;;2.40;2.40;;;;;33.23;30.57;99985.84;5134742;27;8968;-62
2022/07/28 11:40:51;;;;;;;;;1.60;1.40;;;;;33.36;30.23;99979.88;5134706;27;9263;-62